Time;durP1;ratioP1;P1;durP2;ratioP2;P2;SDS_P1;SDS_P2;PMS_P1;PMS_P2;Temp;Humidity;BMP_temperature;BMP_pressure;BME280_temperature;BME280_humidity;BME280_pressure;Samples;Min_cycle;Max_cycle;Signal;HPM_P1;HPM_P2
2021/09/20 00:01:08;;;;;;;6.15;3.58;;;15.10;89.70;;;;;;4845028;29;20553;-85
2021/09/20 00:14:57;;;;;;;5.75;3.38;;;15.00;89.50;;;;;;5081128;23;20506;-84
2021/09/20 00:17:23;;;;;;;6.50;3.53;;;15.00;90.00;;;;;;4877118;29;20052;-84
2021/09/20 00:19:48;;;;;;;6.40;3.53;;;14.90;90.00;;;;;;4880992;29;20037;-84
2021/09/20 00:22:14;;;;;;;6.45;3.92;;;14.90;90.10;;;;;;4866396;29;20041;-84
2021/09/20 00:24:40;;;;;;;7.97;3.78;;;14.90;90.10;;;;;;4863119;29;20418;-84
2021/09/20 00:39:35;;;;;;;6.45;3.88;;;14.70;90.40;;;;;;5303511;23;20049;-84
2021/09/20 00:42:01;;;;;;;7.00;3.95;;;14.70;90.50;;;;;;4880381;29;20045;-84
2021/09/20 00:44:27;;;;;;;8.00;4.20;;;14.60;90.50;;;;;;4879728;29;20045;-84
2021/09/20 00:46:52;;;;;;;6.45;3.90;;;14.60;90.40;;;;;;4865131;29;20045;-84
2021/09/20 00:49:18;;;;;;;7.45;3.85;;;14.60;90.50;;;;;;4865707;29;20084;-83
2021/09/20 00:51:44;;;;;;;6.32;3.63;;;14.60;90.50;;;;;;4873305;29;20050;-84
2021/09/20 00:54:10;;;;;;;6.13;3.60;;;14.60;90.60;;;;;;4856428;29;20065;-83
2021/09/20 00:56:36;;;;;;;6.32;3.70;;;14.50;90.60;;;;;;4875041;29;20068;-84
2021/09/20 00:59:02;;;;;;;6.68;3.97;;;14.40;90.60;;;;;;4862334;29;20071;-84
2021/09/20 01:01:28;;;;;;;6.75;3.70;;;14.40;90.70;;;;;;4865834;29;20494;-83
2021/09/20 01:03:53;;;;;;;8.68;3.90;;;14.40;90.70;;;;;;4880932;29;20049;-84
2021/09/20 01:06:19;;;;;;;7.35;3.72;;;14.40;90.70;;;;;;4877660;29;20137;-84
2021/09/20 01:08:45;;;;;;;7.85;4.05;;;14.30;90.70;;;;;;4861929;29;20084;-84
2021/09/20 01:11:16;;;;;;;6.68;3.97;;;14.30;90.70;;;;;;4855034;29;20489;-84
2021/09/20 01:13:57;;;;;;;7.43;4.15;;;14.30;90.70;;;;;;4845321;29;20113;-83
2021/09/20 01:16:23;;;;;;;6.93;4.10;;;14.30;90.40;;;;;;4875711;29;20512;-83
2021/09/20 01:18:48;;;;;;;7.63;4.15;;;14.20;90.70;;;;;;4871667;29;20135;-84
2021/09/20 01:21:29;;;;;;;7.22;3.90;;;14.20;90.70;;;;;;4880158;29;20052;-84
2021/09/20 01:24:04;;;;;;;7.57;4.03;;;14.20;90.60;;;;;;4862780;29;20401;-84
2021/09/20 01:37:47;;;;;;;6.55;3.95;;;14.10;90.60;;;;;;4837695;29;20057;-84
2021/09/20 01:40:26;;;;;;;6.13;3.80;;;14.00;90.80;;;;;;4825475;29;20113;-84
2021/09/20 01:43:17;;;;;;;7.70;4.53;;;13.90;90.60;;;;;;4826001;29;20057;-84
2021/09/20 01:45:46;;;;;;;6.75;4.07;;;13.90;90.80;;;;;;4826358;29;20050;-83
2021/09/20 01:48:42;;;;;;;7.53;4.60;;;13.90;90.90;;;;;;4840383;29;20041;-83
2021/09/20 01:51:16;;;;;;;7.05;4.20;;;13.80;90.80;;;;;;4814217;29;20049;-83
2021/09/20 01:53:42;;;;;;;5.97;3.72;;;13.80;91.00;;;;;;4839806;24;20064;-83
2021/09/20 01:58:44;;;;;;;7.25;4.38;;;13.70;91.00;;;;;;5060774;23;20057;-83
2021/09/20 02:01:09;;;;;;;7.70;4.78;;;13.70;91.20;;;;;;4844786;29;20049;-83
2021/09/20 02:03:35;;;;;;;7.10;4.55;;;13.60;91.20;;;;;;4844791;29;20136;-83
2021/09/20 02:16:26;;;;;;;7.30;3.90;;;13.40;91.10;;;;;;5057510;23;20048;-83
2021/09/20 02:18:52;;;;;;;7.50;4.63;;;13.40;91.50;;;;;;4866619;29;20054;-83
2021/09/20 02:21:17;;;;;;;7.20;4.45;;;13.40;91.60;;;;;;4861677;29;20071;-83
2021/09/20 02:23:43;;;;;;;6.90;4.22;;;13.40;91.60;;;;;;4859058;29;20418;-84
2021/09/20 02:26:11;;;;;;;11.75;4.88;;;13.40;91.60;;;;;;4856785;29;20045;-84
2021/09/20 02:31:32;;;;;;;7.10;4.57;;;13.30;91.60;;;;;;4845747;29;20058;-84
2021/09/20 02:45:59;;;;;;;9.75;5.07;;;13.20;91.30;;;;;;4878826;29;20039;-83
2021/09/20 02:59:51;;;;;;;7.05;4.47;;;13.10;91.20;;;;;;4804065;29;20175;-83
2021/09/20 03:10:16;;;;;;;7.55;4.45;;;13.00;91.40;;;;;;4860919;29;20139;-84
2021/09/20 03:12:41;;;;;;;8.80;4.68;;;12.90;91.60;;;;;;4877731;29;20136;-84
2021/09/20 03:15:08;;;;;;;8.52;4.32;;;12.90;91.70;;;;;;4878162;29;20037;-83
2021/09/20 03:17:34;;;;;;;7.68;4.75;;;12.90;91.80;;;;;;4865358;29;20077;-84
2021/09/20 03:20:00;;;;;;;7.82;4.63;;;12.90;91.70;;;;;;4872420;29;20072;-83
2021/09/20 03:22:26;;;;;;;7.53;4.75;;;12.80;91.60;;;;;;4863356;29;20049;-84
2021/09/20 03:24:52;;;;;;;8.68;4.97;;;12.80;91.70;;;;;;4872725;29;20045;-84
2021/09/20 03:27:18;;;;;;;7.25;4.85;;;12.80;91.80;;;;;;4877891;29;20047;-84
2021/09/20 03:29:43;;;;;;;9.38;4.60;;;12.80;91.90;;;;;;4868428;29;20073;-84
2021/09/20 03:32:09;;;;;;;7.38;4.50;;;12.80;91.90;;;;;;4877310;29;20053;-84
2021/09/20 03:34:51;;;;;;;8.23;4.43;;;12.80;91.90;;;;;;4870705;29;20098;-84
2021/09/20 03:37:20;;;;;;;6.97;4.53;;;12.70;91.70;;;;;;4860057;29;20141;-83
2021/09/20 03:39:46;;;;;;;7.80;4.20;;;12.80;91.80;;;;;;4860460;29;20570;-83
2021/09/20 03:42:18;;;;;;;7.57;4.63;;;12.70;91.70;;;;;;4844687;29;20071;-83
2021/09/20 03:44:49;;;;;;;7.47;4.35;;;12.70;91.80;;;;;;4867758;29;20053;-83
2021/09/20 03:47:29;;;;;;;7.50;5.13;;;12.70;91.90;;;;;;4861977;29;20060;-83
2021/09/20 03:50:01;;;;;;;7.32;4.70;;;12.80;91.90;;;;;;4868022;29;20056;-83
2021/09/20 04:12:25;;;;;;;7.38;4.53;;;12.60;91.20;;;;;;4851828;23;20093;-83
2021/09/20 04:14:54;;;;;;;8.05;4.70;;;12.60;91.60;;;;;;4846037;29;20129;-84
2021/09/20 04:17:49;;;;;;;7.30;4.72;;;12.60;91.70;;;;;;4808876;29;20115;-84
2021/09/20 04:20:24;;;;;;;8.02;4.88;;;12.60;91.70;;;;;;4791958;29;20067;-84
2021/09/20 04:22:59;;;;;;;7.90;4.90;;;12.60;91.60;;;;;;4791833;29;20055;-83
2021/09/20 04:25:39;;;;;;;6.85;4.45;;;12.60;91.70;;;;;;4791520;29;20154;-83
2021/09/20 04:28:10;;;;;;;8.02;5.00;;;12.60;91.70;;;;;;4790040;29;20555;-83
2021/09/20 04:33:13;;;;;;;7.22;4.80;;;12.60;91.80;;;;;;5077613;23;20068;-83
2021/09/20 04:35:39;;;;;;;8.52;4.63;;;12.60;91.90;;;;;;4846617;29;20198;-83
2021/09/20 04:38:05;;;;;;;7.90;4.95;;;12.60;91.90;;;;;;4847536;29;20053;-83
2021/09/20 04:40:31;;;;;;;7.95;4.63;;;12.70;91.90;;;;;;4846985;29;20059;-83
2021/09/20 04:42:57;;;;;;;7.15;4.35;;;12.70;91.90;;;;;;4845472;29;20105;-83
2021/09/20 04:45:23;;;;;;;9.27;4.97;;;12.70;91.70;;;;;;4870400;29;20037;-83
2021/09/20 04:47:48;;;;;;;8.07;4.75;;;12.70;91.70;;;;;;4880473;29;20459;-83
2021/09/20 04:57:57;;;;;;;6.80;4.50;;;12.70;91.40;;;;;;4856180;29;20045;-83
2021/09/20 05:04:23;;;;;;;9.27;4.70;;;12.70;91.50;;;;;;4844166;29;20093;-83
2021/09/20 05:11:12;;;;;;;8.32;4.38;;;12.60;91.50;;;;;;4862973;29;20076;-83
2021/09/20 05:13:38;;;;;;;7.90;4.47;;;12.60;91.20;;;;;;4879450;29;20073;-83
2021/09/20 05:16:18;;;;;;;8.45;4.78;;;12.70;91.70;;;;;;4880671;29;20057;-83
2021/09/20 05:18:55;;;;;;;9.20;4.60;;;12.60;91.60;;;;;;4861172;29;20081;-83
2021/09/20 05:21:30;;;;;;;7.35;4.22;;;12.60;91.70;;;;;;4873433;29;20045;-83
2021/09/20 05:23:59;;;;;;;6.72;4.45;;;12.70;91.80;;;;;;4841143;29;20855;-82
2021/09/20 05:26:55;;;;;;;7.25;4.53;;;12.70;91.80;;;;;;4876598;29;20509;-85
2021/09/20 05:44:06;;;;;;;7.82;4.47;;;12.70;91.40;;;;;;4986754;23;20128;-90
2021/09/20 05:46:34;;;;;;;7.03;4.35;;;12.70;91.60;;;;;;4856095;29;20053;-86
2021/09/20 05:49:00;;;;;;;8.45;4.40;;;12.70;91.60;;;;;;4850492;29;20045;-86
2021/09/20 05:51:26;;;;;;;7.10;4.68;;;12.70;91.60;;;;;;4864504;29;20048;-85
2021/09/20 05:53:52;;;;;;;6.45;4.25;;;12.70;91.50;;;;;;4890542;29;20413;-83
2021/09/20 05:56:28;;;;;;;7.40;4.65;;;12.80;91.50;;;;;;4883316;29;20131;-84
2021/09/20 05:58:53;;;;;;;7.35;4.43;;;12.80;91.60;;;;;;4884912;29;20064;-84
2021/09/20 06:01:19;;;;;;;7.03;4.35;;;12.70;91.50;;;;;;4891153;29;20140;-84
2021/09/20 06:03:49;;;;;;;7.68;4.70;;;12.70;91.50;;;;;;4866603;29;20049;-84
2021/09/20 06:06:14;;;;;;;6.88;4.10;;;12.80;91.50;;;;;;4873309;29;20057;-84
2021/09/20 06:08:40;;;;;;;6.30;4.32;;;12.80;91.50;;;;;;4880198;29;20049;-84
2021/09/20 06:11:05;;;;;;;9.20;4.82;;;12.80;91.50;;;;;;4883492;29;20048;-84
2021/09/20 06:13:31;;;;;;;8.20;4.53;;;12.80;91.60;;;;;;4860468;29;20045;-82
2021/09/20 06:15:57;;;;;;;6.70;4.38;;;12.80;91.50;;;;;;4851915;29;20072;-83
2021/09/20 06:18:22;;;;;;;7.43;4.50;;;12.80;91.50;;;;;;4856644;29;20124;-83
2021/09/20 06:20:48;;;;;;;8.35;4.38;;;12.90;91.50;;;;;;4893991;29;20394;-83
2021/09/20 06:23:22;;;;;;;9.02;4.18;;;12.80;91.50;;;;;;4881009;29;20064;-83
2021/09/20 06:25:48;;;;;;;9.20;4.55;;;12.80;91.60;;;;;;4869089;29;20053;-82
2021/09/20 06:28:14;;;;;;;8.35;4.57;;;12.90;91.60;;;;;;4877242;29;20045;-83
2021/09/20 06:30:40;;;;;;;7.90;4.18;;;12.90;91.60;;;;;;4878698;29;20061;-83
2021/09/20 06:33:05;;;;;;;7.30;3.70;;;12.90;91.50;;;;;;4889167;29;20131;-83
2021/09/20 06:35:31;;;;;;;7.25;4.45;;;12.90;91.40;;;;;;4888398;29;20097;-82
2021/09/20 06:37:57;;;;;;;8.40;4.30;;;12.90;91.30;;;;;;4884005;29;20051;-83
2021/09/20 06:40:23;;;;;;;7.45;3.97;;;12.90;91.30;;;;;;4885697;29;20131;-85
2021/09/20 06:42:48;;;;;;;8.75;4.32;;;12.90;91.40;;;;;;4862644;29;20109;-85
2021/09/20 06:45:14;;;;;;;6.97;4.30;;;12.90;91.30;;;;;;4864797;29;20120;-84
2021/09/20 06:47:43;;;;;;;7.00;4.13;;;13.00;91.30;;;;;;4878427;29;20061;-85
2021/09/20 07:12:01;;;;;;;7.18;4.18;;;13.10;91.10;;;;;;4806381;29;20088;-83
2021/09/20 07:14:31;;;;;;;7.63;4.10;;;13.10;91.20;;;;;;4788718;29;20051;-84
2021/09/20 07:17:03;;;;;;;7.88;4.07;;;13.20;91.40;;;;;;4792090;29;20454;-84
2021/09/20 07:19:29;;;;;;;7.22;3.80;;;13.20;91.40;;;;;;4787670;29;20055;-83
2021/09/20 07:22:24;;;;;;;7.47;3.80;;;13.20;91.40;;;;;;4788438;29;20053;-83
2021/09/20 07:24:50;;;;;;;6.90;3.88;;;13.30;91.40;;;;;;4791187;29;20132;-83
2021/09/20 07:27:30;;;;;;;7.07;4.07;;;13.30;91.40;;;;;;4801166;29;20038;-83
2021/09/20 07:30:08;;;;;;;5.70;3.75;;;13.30;91.20;;;;;;4792121;29;20078;-84
2021/09/20 07:32:40;;;;;;;7.07;4.25;;;13.30;91.20;;;;;;4846818;29;20080;-84
2021/09/20 07:35:15;;;;;;;6.72;3.90;;;13.40;91.20;;;;;;4862714;29;20195;-85
2021/09/20 07:37:55;;;;;;;6.93;3.95;;;13.40;91.20;;;;;;4871860;29;20057;-84
2021/09/20 07:40:33;;;;;;;6.88;4.03;;;13.40;91.20;;;;;;4863697;29;20045;-84
2021/09/20 07:43:11;;;;;;;6.90;4.13;;;13.50;91.50;;;;;;4861724;29;20041;-84
2021/09/20 07:45:44;;;;;;;7.40;3.60;;;13.50;91.10;;;;;;4858196;29;20525;-86
2021/09/20 07:48:09;;;;;;;6.10;3.58;;;13.50;91.20;;;;;;4880330;29;20553;-82
2021/09/20 07:50:40;;;;;;;6.88;3.75;;;13.60;91.10;;;;;;4874850;29;20081;-84
2021/09/20 07:53:12;;;;;;;7.65;4.03;;;13.60;91.10;;;;;;4868402;29;20041;-84
2021/09/20 07:56:38;;;;;;;6.13;3.28;;;13.60;91.10;;;;;;4879063;29;20088;-85
2021/09/20 08:08:01;;;;;;;;;;;;;;;;;;;;;
2021/09/20 08:26:56;;;;;;;;;;;;;;;;;;;;;
2021/09/20 08:45:02;;;;;;;7.25;3.80;;;14.20;90.70;;;;;;4591620;31;20043;-85
2021/09/20 08:47:41;;;;;;;8.88;3.80;;;14.20;90.70;;;;;;4589833;31;20419;-85
2021/09/20 08:50:18;;;;;;;6.72;3.50;;;14.30;90.80;;;;;;4603606;30;20484;-84
2021/09/20 08:52:57;;;;;;;8.00;3.45;;;14.30;91.10;;;;;;4619239;30;20066;-85
2021/09/20 08:55:24;;;;;;;6.45;3.80;;;14.40;90.80;;;;;;4701473;30;20505;-84
2021/09/20 08:57:50;;;;;;;6.97;3.45;;;14.40;90.70;;;;;;4815269;29;20053;-84
2021/09/20 09:00:16;;;;;;;5.82;3.40;;;14.50;90.70;;;;;;4857737;29;20502;-84
2021/09/20 09:02:42;;;;;;;6.57;3.22;;;14.50;90.70;;;;;;4838857;29;20065;-84
2021/09/20 09:05:28;;;;;;;5.68;3.33;;;14.50;90.50;;;;;;4843142;29;20163;-84
2021/09/20 09:08:05;;;;;;;8.13;3.15;;;14.60;90.30;;;;;;4843977;29;20484;-84
2021/09/20 09:10:33;;;;;;;6.95;3.47;;;14.60;90.10;;;;;;4874600;29;20049;-84
2021/09/20 09:13:04;;;;;;;8.65;3.13;;;14.60;90.10;;;;;;4851511;29;20052;-86
2021/09/20 09:15:31;;;;;;;9.77;2.78;;;14.70;90.00;;;;;;4859620;29;20056;-85
2021/09/20 09:17:58;;;;;;;5.97;3.00;;;14.70;89.30;;;;;;4892797;29;20045;-87
2021/09/20 09:20:30;;;;;;;6.40;2.75;;;14.80;89.10;;;;;;4878562;29;20387;-86
2021/09/20 09:22:58;;;;;;;7.32;3.10;;;14.80;88.40;;;;;;4858254;29;20036;-87
2021/09/20 09:25:28;;;;;;;6.38;2.80;;;14.90;88.70;;;;;;4866416;29;20450;-87
2021/09/20 09:28:01;;;;;;;7.40;3.10;;;14.90;89.10;;;;;;4870146;29;20042;-87
2021/09/20 09:30:30;;;;;;;7.55;2.67;;;15.00;88.80;;;;;;4868240;29;20045;-87
2021/09/20 09:33:06;;;;;;;5.80;2.70;;;15.00;88.70;;;;;;4879499;29;20037;-87
2021/09/20 09:35:35;;;;;;;8.30;2.72;;;15.10;88.50;;;;;;4884856;29;20053;-87
2021/09/20 09:38:04;;;;;;;7.00;2.15;;;15.10;88.00;;;;;;4876320;29;20045;-83
2021/09/20 09:40:31;;;;;;;4.78;2.38;;;15.20;86.80;;;;;;4883996;29;20057;-84
2021/09/20 09:43:01;;;;;;;5.68;2.72;;;15.20;86.60;;;;;;4883404;29;20048;-84
2021/09/20 09:45:32;;;;;;;8.23;2.75;;;15.20;87.40;;;;;;4856020;29;20045;-82
2021/09/20 09:48:10;;;;;;;5.82;2.63;;;15.30;87.10;;;;;;4867821;29;20506;-83
2021/09/20 09:50:46;;;;;;;7.65;2.80;;;15.30;87.30;;;;;;4886933;29;20049;-82
2021/09/20 09:53:42;;;;;;;8.07;2.42;;;15.40;86.60;;;;;;4867743;29;20048;-83
2021/09/20 09:56:14;;;;;;;5.88;2.50;;;15.40;84.60;;;;;;4852171;29;20068;-82
2021/09/20 09:58:56;;;;;;;4.78;2.17;;;15.40;86.10;;;;;;4869729;29;20053;-82
2021/09/20 10:01:28;;;;;;;5.13;2.00;;;15.50;86.10;;;;;;4853146;29;20076;-86
2021/09/20 10:04:05;;;;;;;4.53;2.40;;;15.50;86.30;;;;;;4868806;29;20041;-84
2021/09/20 10:06:46;;;;;;;4.57;1.98;;;15.60;86.60;;;;;;4889943;29;20499;-83
2021/09/20 10:09:14;;;;;;;6.53;2.10;;;15.70;86.10;;;;;;4870373;29;20544;-84
2021/09/20 10:11:43;;;;;;;5.53;2.03;;;15.70;84.60;;;;;;4888450;29;20069;-83
2021/09/20 10:14:10;;;;;;;5.75;1.83;;;15.70;85.30;;;;;;4878321;29;20087;-84
2021/09/20 10:16:36;;;;;;;4.13;1.92;;;15.80;85.00;;;;;;4868691;29;20048;-84
2021/09/20 10:19:03;;;;;;;5.55;1.80;;;15.80;85.20;;;;;;4863204;29;20169;-84
2021/09/20 10:21:30;;;;;;;5.38;2.08;;;15.90;83.60;;;;;;4857528;29;20048;-84
2021/09/20 10:23:56;;;;;;;5.10;2.00;;;15.90;85.10;;;;;;4887117;29;20454;-84
2021/09/20 10:26:23;;;;;;;3.63;1.70;;;16.00;85.30;;;;;;4887782;29;20406;-85
2021/09/20 10:28:51;;;;;;;8.00;2.05;;;16.00;84.50;;;;;;4871015;29;20052;-85
2021/09/20 10:31:18;;;;;;;4.55;2.00;;;16.10;84.50;;;;;;4869363;29;20393;-84
2021/09/20 10:33:44;;;;;;;5.90;1.30;;;16.10;85.70;;;;;;4877575;29;20079;-85
2021/09/20 10:36:10;;;;;;;5.18;1.40;;;16.10;82.60;;;;;;4883328;29;20040;-82
2021/09/20 10:38:36;;;;;;;3.00;1.20;;;16.10;78.80;;;;;;4869266;29;20053;-90
2021/09/20 10:52:05;;;;;;;4.85;1.40;;;16.40;82.20;;;;;;4784739;30;20046;-83
2021/09/20 10:54:58;;;;;;;3.58;1.50;;;16.40;81.90;;;;;;4737848;30;20086;-84
2021/09/20 10:57:30;;;;;;;3.75;1.42;;;16.50;82.80;;;;;;4735871;30;20564;-85
2021/09/20 11:04:01;;;;;;;3.33;1.55;;;16.60;81.20;;;;;;4733571;30;20130;-84
2021/09/20 11:06:55;;;;;;;2.85;1.40;;;16.70;83.00;;;;;;4732354;30;20448;-84
2021/09/20 11:09:33;;;;;;;4.03;1.30;;;16.70;84.20;;;;;;4768230;30;20524;-82
2021/09/20 11:12:19;;;;;;;2.67;1.30;;;16.80;84.80;;;;;;4772389;30;20412;-84
2021/09/20 11:14:52;;;;;;;4.20;1.50;;;16.90;85.00;;;;;;4773093;30;20150;-84
2021/09/20 11:21:33;;;;;;;3.25;1.15;;;17.00;83.40;;;;;;4779315;29;20139;-84
2021/09/20 11:27:45;;;;;;;3.90;1.48;;;17.10;82.10;;;;;;4805051;29;20059;-84
2021/09/20 11:30:58;;;;;;;3.90;1.35;;;17.10;81.20;;;;;;4822826;29;20514;-84
2021/09/20 11:34:00;;;;;;;3.83;1.35;;;17.10;80.90;;;;;;4810546;29;20054;-84
2021/09/20 12:01:12;;;;;;;4.20;1.23;;;17.40;81.60;;;;;;5041728;24;20120;-84
2021/09/20 12:15:58;;;;;;;3.92;1.30;;;17.60;82.50;;;;;;4804924;29;20057;-85
2021/09/20 12:32:30;;;;;;;3.88;1.10;;;17.80;83.00;;;;;;4807561;29;20058;-83
2021/09/20 12:35:35;;;;;;;3.40;1.00;;;17.90;82.80;;;;;;4798139;29;20058;-84
2021/09/20 14:29:54;;;;;;;3.63;1.45;;;19.10;81.30;;;;;;4791412;29;20080;-91
2021/09/20 14:32:59;;;;;;;2.47;1.23;;;19.10;81.20;;;;;;4754950;30;20047;-89
2021/09/20 14:35:39;;;;;;;2.45;1.15;;;19.20;80.60;;;;;;4760303;30;20063;-90
2021/09/20 14:38:35;;;;;;;3.22;1.10;;;19.20;79.60;;;;;;4767752;30;20047;-91
2021/09/20 14:41:06;;;;;;;2.70;1.30;;;19.20;79.30;;;;;;4772323;30;20138;-90
2021/09/20 14:43:50;;;;;;;5.47;1.38;;;19.20;80.40;;;;;;4773817;30;20138;-90
2021/09/20 14:50:13;;;;;;;3.50;1.17;;;19.30;80.20;;;;;;4774268;30;20051;-87
2021/09/20 14:52:47;;;;;;;4.03;1.20;;;19.20;80.80;;;;;;4768207;30;20047;-87
2021/09/20 15:02:13;;;;;;;2.78;1.23;;;19.30;82.00;;;;;;4885049;24;20053;-87
2021/09/20 15:15:20;;;;;;;2.70;1.30;;;19.40;82.30;;;;;;4806363;29;20057;-86
2021/09/20 15:18:00;;;;;;;2.50;1.10;;;19.50;82.80;;;;;;4816971;29;20046;-88
2021/09/20 15:20:57;;;;;;;5.70;1.17;;;19.50;82.50;;;;;;4810437;29;20074;-87
2021/09/20 15:23:26;;;;;;;3.35;1.40;;;19.50;83.00;;;;;;4804076;29;20046;-87
2021/09/20 15:25:54;;;;;;;3.65;1.50;;;19.60;83.50;;;;;;4809540;29;20054;-85
2021/09/20 15:28:38;;;;;;;4.20;1.40;;;19.60;83.60;;;;;;4823216;29;20555;-86
2021/09/20 15:43:32;;;;;;;2.80;1.15;;;19.60;82.50;;;;;;4690426;30;20192;-87
2021/09/20 15:46:25;;;;;;;2.10;1.13;;;19.60;80.40;;;;;;4648814;30;20053;-88
2021/09/20 16:00:25;;;;;;;2.50;1.13;;;19.60;82.80;;;;;;4569207;31;20040;-89
2021/09/20 16:13:42;;;;;;;4.03;1.20;;;19.60;83.30;;;;;;6176721;22;1531324;-90
2021/09/20 16:16:25;;;;;;;2.42;1.10;;;19.60;85.00;;;;;;6222816;23;20368;-87
2021/09/20 16:19:31;;;;;;;4.07;1.40;;;19.60;85.20;;;;;;6223893;23;20388;-90
2021/09/20 16:22:14;;;;;;;2.95;1.02;;;19.60;85.50;;;;;;6222943;23;20099;-87
2021/09/20 16:29:18;;;;;;;;;;;;;;;;;;;;;
2021/09/20 16:36:01;;;;;;;3.28;1.30;;;19.60;85.00;;;;;;6101431;23;20022;-84
2021/09/20 16:39:06;;;;;;;3.05;1.20;;;19.50;84.60;;;;;;6077883;23;20026;-87
2021/09/20 16:52:44;;;;;;;3.90;1.50;;;19.40;82.40;;;;;;6102599;23;20037;-88
2021/09/20 17:03:07;;;;;;;3.33;1.33;;;19.30;83.90;;;;;;6036639;23;20061;-88
2021/09/20 17:05:44;;;;;;;2.35;1.13;;;19.30;83.80;;;;;;6222552;23;20012;-86
2021/09/20 17:08:28;;;;;;;6.18;1.45;;;19.30;84.00;;;;;;6220847;23;20020;-86
2021/09/20 17:11:06;;;;;;;3.45;1.42;;;19.30;84.00;;;;;;6223147;23;20021;-88
2021/09/20 17:13:42;;;;;;;3.35;1.20;;;19.20;83.80;;;;;;6217229;23;20449;-86
2021/09/20 17:16:07;;;;;;;2.58;1.40;;;19.30;83.70;;;;;;6215099;23;20013;-87
2021/09/20 17:18:58;;;;;;;4.18;1.52;;;19.20;83.60;;;;;;6216234;23;20315;-87
2021/09/20 17:25:09;;;;;;;3.40;1.52;;;19.10;83.80;;;;;;6216943;23;20030;-88
2021/09/20 17:27:51;;;;;;;3.38;1.40;;;19.00;83.80;;;;;;6215505;23;20431;-87
2021/09/20 17:31:07;;;;;;;4.40;1.45;;;19.00;84.10;;;;;;6215217;23;20067;-87
2021/09/20 17:33:32;;;;;;;3.25;1.45;;;18.90;84.20;;;;;;6215702;23;20095;-86
2021/09/20 17:46:22;;;;;;;5.03;1.60;;;18.70;84.40;;;;;;6187575;23;20461;-88
2021/09/20 17:48:49;;;;;;;4.13;1.63;;;18.70;84.80;;;;;;6161146;23;20025;-88
2021/09/20 17:51:21;;;;;;;3.67;1.70;;;18.60;84.70;;;;;;6156603;23;20022;-87
2021/09/20 17:53:56;;;;;;;3.78;1.55;;;18.60;84.70;;;;;;6161206;23;20044;-86
2021/09/20 17:56:24;;;;;;;3.92;1.50;;;18.60;84.60;;;;;;6160293;23;20017;-86
2021/09/20 17:59:27;;;;;;;4.38;1.85;;;18.50;84.70;;;;;;6159037;23;20468;-87
2021/09/20 18:02:30;;;;;;;3.95;1.58;;;18.40;84.40;;;;;;6160240;23;20021;-88
2021/09/20 18:15:54;;;;;;;4.57;1.70;;;18.20;84.40;;;;;;6183997;23;20059;-86
2021/09/20 18:40:49;;;;;;;4.28;2.03;;;17.70;84.40;;;;;;6193515;23;20026;-86
2021/09/20 18:51:21;;;;;;;4.40;2.22;;;17.60;84.40;;;;;;6096129;23;20041;-85
2021/09/20 19:08:14;;;;;;;4.75;2.55;;;17.40;84.40;;;;;;5953537;24;20121;-86
2021/09/20 19:10:42;;;;;;;5.38;2.58;;;17.30;84.80;;;;;;5931153;24;20021;-86
2021/09/20 19:13:31;;;;;;;5.50;2.97;;;17.30;84.70;;;;;;5925240;24;20028;-87
2021/09/20 19:16:15;;;;;;;5.75;3.08;;;17.30;84.70;;;;;;5958022;24;20016;-85
2021/09/20 19:18:52;;;;;;;5.65;2.80;;;17.30;84.60;;;;;;5957977;24;20082;-85
2021/09/20 19:21:23;;;;;;;5.10;2.95;;;17.20;84.80;;;;;;5956933;24;20471;-87
2021/09/20 19:27:29;;;;;;;5.65;3.10;;;17.10;84.30;;;;;;5984209;23;20443;-87
2021/09/20 19:30:08;;;;;;;6.45;2.88;;;17.00;84.90;;;;;;5985415;23;20028;-88
2021/09/20 19:32:49;;;;;;;4.93;2.83;;;17.00;84.60;;;;;;5991290;23;20099;-88
2021/09/20 19:35:24;;;;;;;5.30;3.05;;;16.90;84.50;;;;;;6073322;23;20089;-88
2021/09/20 19:38:01;;;;;;;6.57;3.10;;;16.90;84.50;;;;;;6071610;23;20062;-86
2021/09/20 19:40:33;;;;;;;5.25;2.97;;;16.90;85.30;;;;;;6072705;23;20018;-86
2021/09/20 19:47:21;;;;;;;5.28;2.45;;;16.80;84.30;;;;;;5981493;24;20566;-85
2021/09/20 19:53:59;;;;;;;5.28;2.60;;;16.60;84.20;;;;;;5928679;24;20474;-86
2021/09/20 19:56:25;;;;;;;4.40;2.50;;;16.50;84.90;;;;;;5930669;24;20106;-86
2021/09/20 19:59:06;;;;;;;4.80;2.80;;;16.50;85.20;;;;;;5929058;24;20524;-86
2021/09/20 20:01:33;;;;;;;4.32;2.50;;;16.50;84.80;;;;;;5931287;24;20017;-87
2021/09/20 20:03:59;;;;;;;6.30;2.88;;;16.40;86.00;;;;;;5919100;24;20028;-86
2021/09/20 20:06:28;;;;;;;6.90;2.63;;;16.40;85.40;;;;;;5930745;24;20021;-85
2021/09/20 20:08:54;;;;;;;4.28;2.45;;;16.30;85.20;;;;;;5953625;24;20044;-85
2021/09/20 20:11:33;;;;;;;4.82;2.50;;;16.30;85.20;;;;;;5928820;24;20454;-86
2021/09/20 20:14:11;;;;;;;4.00;2.42;;;16.20;84.60;;;;;;5930104;24;20025;-85
2021/09/20 20:16:52;;;;;;;4.43;2.30;;;16.20;84.70;;;;;;6042621;23;20015;-85
2021/09/20 20:19:25;;;;;;;5.07;2.60;;;16.10;84.40;;;;;;6042643;23;20023;-85
2021/09/20 20:21:51;;;;;;;4.85;2.50;;;16.10;84.80;;;;;;6042687;23;20451;-85
2021/09/20 20:25:17;;;;;;;;;;;;;;;;;;;;;
2021/09/20 20:51:02;;;;;;;6.03;2.88;;;15.40;85.00;;;;;;6157071;23;20051;-85
2021/09/20 20:54:17;;;;;;;6.93;2.88;;;15.30;84.60;;;;;;6156860;23;20033;-84
2021/09/20 20:56:45;;;;;;;5.60;2.85;;;15.20;84.70;;;;;;6132294;23;20021;-84
2021/09/20 20:59:11;;;;;;;6.75;2.90;;;15.20;85.90;;;;;;6132322;23;20025;-84
2021/09/20 21:01:50;;;;;;;5.78;2.92;;;15.10;86.10;;;;;;6131447;23;20025;-84
2021/09/20 21:04:18;;;;;;;4.72;2.83;;;15.10;85.80;;;;;;6131843;23;20024;-84
2021/09/20 21:38:24;;;;;;;6.45;3.22;;;14.50;87.60;;;;;;6028805;23;20048;-85
2021/09/20 21:41:47;;;;;;;;;;;;;;;;;;;;;
2021/09/20 21:44:43;;;;;;;5.85;3.10;;;14.40;88.00;;;;;;5953433;24;20337;-84
2021/09/20 21:47:18;;;;;;;5.18;2.90;;;14.30;88.40;;;;;;5959643;24;20051;-84
2021/09/20 21:49:52;;;;;;;6.03;2.95;;;14.30;88.70;;;;;;5983469;23;20504;-84
2021/09/20 21:52:26;;;;;;;5.80;3.13;;;14.20;88.80;;;;;;6102291;23;20017;-84
2021/09/20 21:55:02;;;;;;;;;;;;;;;;;;;;;
2021/09/20 21:57:31;;;;;;;4.65;2.83;;;14.20;89.10;;;;;;6101124;23;20022;-84
2021/09/20 21:59:57;;;;;;;6.20;2.88;;;14.10;89.00;;;;;;6101381;23;20022;-84
2021/09/20 22:02:35;;;;;;;5.93;3.00;;;14.10;89.20;;;;;;6101657;23;20022;-85
2021/09/20 22:08:18;;;;;;;5.93;2.88;;;14.00;89.40;;;;;;6151009;23;20060;-84
2021/09/20 22:10:48;;;;;;;5.60;2.90;;;14.00;89.20;;;;;;6130301;23;20017;-84
2021/09/20 22:13:33;;;;;;;6.40;2.95;;;14.00;89.40;;;;;;6161584;23;20087;-84
2021/09/20 22:16:04;;;;;;;6.85;2.92;;;13.90;88.60;;;;;;6161565;23;20398;-84
2021/09/20 22:18:33;;;;;;;6.30;3.10;;;13.90;89.10;;;;;;6160478;23;20017;-84
2021/09/20 22:21:08;;;;;;;5.63;3.10;;;13.90;89.10;;;;;;6161066;23;20048;-84
2021/09/20 22:23:34;;;;;;;5.90;3.10;;;13.90;88.80;;;;;;6161367;23;20053;-84
2021/09/20 22:26:00;;;;;;;5.85;3.10;;;13.90;88.70;;;;;;6160685;23;20210;-84
2021/09/20 22:28:26;;;;;;;6.10;3.33;;;13.80;89.00;;;;;;6160995;23;20827;-85
2021/09/20 22:30:52;;;;;;;6.57;3.50;;;13.70;89.30;;;;;;6161769;23;20020;-85
2021/09/20 22:33:19;;;;;;;5.85;3.22;;;13.80;89.60;;;;;;6160028;23;20381;-84
2021/09/20 22:35:46;;;;;;;6.03;3.30;;;13.70;89.90;;;;;;6160652;23;20025;-84
2021/09/20 22:38:12;;;;;;;5.70;2.88;;;13.70;90.00;;;;;;6161085;23;20453;-85
2021/09/20 22:40:38;;;;;;;5.53;3.05;;;13.60;90.00;;;;;;6159693;23;20020;-84
2021/09/20 22:43:05;;;;;;;6.35;3.28;;;13.60;90.00;;;;;;6160377;23;20072;-84
2021/09/20 22:45:30;;;;;;;5.53;3.08;;;13.60;90.10;;;;;;6160322;23;20028;-84
2021/09/20 22:47:58;;;;;;;6.72;2.80;;;13.50;90.10;;;;;;6160209;23;20013;-84
2021/09/20 22:50:27;;;;;;;6.40;2.83;;;13.50;90.20;;;;;;6159792;23;20017;-85
2021/09/20 22:52:52;;;;;;;5.53;2.80;;;13.40;90.10;;;;;;6159415;23;20145;-84
2021/09/20 22:55:18;;;;;;;5.18;3.03;;;13.40;90.10;;;;;;6160511;23;20382;-84
2021/09/20 22:57:46;;;;;;;6.82;3.22;;;13.40;90.10;;;;;;6160589;23;20029;-84
2021/09/20 23:00:12;;;;;;;6.22;3.10;;;13.40;90.10;;;;;;6160255;23;20498;-84
2021/09/20 23:02:37;;;;;;;7.47;2.95;;;13.40;90.20;;;;;;6160180;23;20052;-84
2021/09/20 23:05:03;;;;;;;5.38;3.00;;;13.40;90.20;;;;;;6160848;23;20017;-84
2021/09/20 23:07:29;;;;;;;5.93;3.03;;;13.30;90.20;;;;;;6160011;23;20017;-84
2021/09/20 23:09:55;;;;;;;7.50;3.53;;;13.30;90.20;;;;;;6187052;23;20013;-84
2021/09/20 23:12:20;;;;;;;5.53;3.03;;;13.30;90.20;;;;;;6160375;23;20021;-85
2021/09/20 23:14:47;;;;;;;5.10;2.80;;;13.40;90.20;;;;;;6160093;23;20017;-84
2021/09/20 23:17:13;;;;;;;6.20;3.25;;;13.30;90.20;;;;;;6160659;23;20044;-84
2021/09/20 23:19:40;;;;;;;6.13;3.00;;;13.40;90.20;;;;;;6160127;23;20445;-84
2021/09/20 23:22:06;;;;;;;6.32;2.60;;;13.30;90.10;;;;;;6159574;23;20357;-85
2021/09/20 23:24:32;;;;;;;5.68;2.78;;;13.30;89.90;;;;;;6160719;23;20017;-84
2021/09/20 23:26:58;;;;;;;6.22;3.10;;;13.30;89.50;;;;;;6160434;23;20024;-85
2021/09/20 23:29:23;;;;;;;5.68;2.92;;;13.30;89.60;;;;;;6159109;23;20016;-84